Time;durP1;ratioP1;P1;durP2;ratioP2;P2;SDS_P1;SDS_P2;PMS_P1;PMS_P2;Temp;Humidity;BMP_temperature;BMP_pressure;BME280_temperature;BME280_humidity;BME280_pressure;Samples;Min_cycle;Max_cycle;Signal;HPM_P1;HPM_P2
2022/06/13 00:01:13;;;;;;;8.30;7.13;;;22.80;99.90;;;;;;5075470;28;20443;-70
2022/06/13 00:03:42;;;;;;;10.07;6.70;;;22.70;99.90;;;;;;5075256;28;20414;-69
2022/06/13 00:06:12;;;;;;;8.47;6.93;;;22.70;99.90;;;;;;5074998;28;20434;-69
2022/06/13 00:08:43;;;;;;;6.57;5.83;;;22.60;99.90;;;;;;5075347;28;20418;-69
2022/06/13 00:11:18;;;;;;;7.53;6.60;;;22.60;99.90;;;;;;5077111;28;20907;-69
2022/06/13 00:13:53;;;;;;;7.73;6.73;;;22.60;99.90;;;;;;5075113;28;20470;-70
2022/06/13 00:16:23;;;;;;;7.80;7.00;;;22.60;99.90;;;;;;5075597;28;20964;-68
2022/06/13 00:18:52;;;;;;;8.10;6.83;;;22.50;99.90;;;;;;5075030;28;20872;-69
2022/06/13 00:21:21;;;;;;;8.03;7.23;;;22.50;99.90;;;;;;5074946;28;20430;-68
2022/06/13 00:23:47;;;;;;;8.87;7.67;;;22.50;99.90;;;;;;5074703;28;20475;-69
2022/06/13 00:26:23;;;;;;;8.80;7.60;;;22.40;99.90;;;;;;5074811;28;20436;-69
2022/06/13 00:28:55;;;;;;;9.40;7.47;;;22.40;99.90;;;;;;5074764;28;20469;-69
2022/06/13 00:31:25;;;;;;;7.67;6.97;;;22.40;99.90;;;;;;5074791;28;20970;-69
2022/06/13 00:33:51;;;;;;;7.90;7.10;;;22.40;99.90;;;;;;5074594;28;20452;-69
2022/06/13 00:36:18;;;;;;;9.00;7.53;;;22.40;99.90;;;;;;5074816;28;20464;-68
2022/06/13 00:38:53;;;;;;;7.97;7.17;;;22.30;99.90;;;;;;5074650;28;20246;-69
2022/06/13 00:41:31;;;;;;;8.93;7.40;;;22.40;99.90;;;;;;5074488;28;20461;-69
2022/06/13 00:43:59;;;;;;;7.93;7.23;;;22.30;99.90;;;;;;5074313;28;20456;-70
2022/06/13 00:46:27;;;;;;;8.60;7.70;;;22.30;99.90;;;;;;5074533;28;20483;-68
2022/06/13 00:48:57;;;;;;;7.57;6.80;;;22.30;99.90;;;;;;5074315;28;20541;-69
2022/06/13 00:51:23;;;;;;;6.77;6.20;;;22.30;99.90;;;;;;5076061;28;20410;-68
2022/06/13 00:53:51;;;;;;;9.40;7.77;;;22.20;99.90;;;;;;5074367;28;20433;-68
2022/06/13 00:56:22;;;;;;;11.40;6.77;;;22.20;99.90;;;;;;5074629;28;20433;-69
2022/06/13 00:58:57;;;;;;;8.90;8.00;;;22.20;99.90;;;;;;5074005;28;20462;-69
2022/06/13 01:01:24;;;;;;;10.07;7.67;;;22.20;99.90;;;;;;5074634;28;20429;-68
2022/06/13 01:03:53;;;;;;;7.57;6.87;;;22.20;99.90;;;;;;5074433;28;20508;-68
2022/06/13 01:06:22;;;;;;;10.57;7.90;;;22.20;99.90;;;;;;5074440;28;20572;-68
2022/06/13 01:08:48;;;;;;;8.87;7.67;;;22.20;99.90;;;;;;5074018;28;20418;-68
2022/06/13 01:11:27;;;;;;;12.20;7.93;;;22.10;99.90;;;;;;5074120;28;20536;-69
2022/06/13 01:14:30;;;;;;;8.43;7.40;;;22.10;99.90;;;;;;5074091;28;20217;-68
2022/06/13 01:17:21;;;;;;;9.33;8.40;;;22.10;99.90;;;;;;5074443;28;20938;-68
2022/06/13 01:20:34;;;;;;;8.20;7.40;;;22.00;99.90;;;;;;5074105;28;20442;-68
2022/06/13 01:23:22;;;;;;;9.10;7.77;;;22.00;99.90;;;;;;5022207;28;20449;-71
2022/06/13 01:26:25;;;;;;;8.83;7.93;;;22.00;99.90;;;;;;5073810;28;20446;-70
2022/06/13 01:29:07;;;;;;;10.20;7.50;;;21.90;99.90;;;;;;5073560;28;20796;-70
2022/06/13 01:31:51;;;;;;;7.60;6.80;;;21.80;99.90;;;;;;5073749;28;20473;-71
2022/06/13 01:34:34;;;;;;;9.93;7.40;;;21.80;99.90;;;;;;5073783;28;20473;-70
2022/06/13 01:37:36;;;;;;;8.93;7.57;;;21.80;99.90;;;;;;5073968;28;20575;-70
2022/06/13 01:40:10;;;;;;;7.20;6.50;;;21.80;99.90;;;;;;5073411;28;20488;-71
2022/06/13 01:43:11;;;;;;;12.33;8.20;;;21.70;99.90;;;;;;5073169;28;20537;-71
2022/06/13 01:45:50;;;;;;;8.73;7.93;;;21.70;99.90;;;;;;5073145;28;20458;-71
2022/06/13 01:48:32;;;;;;;6.97;6.00;;;21.60;99.90;;;;;;5073214;28;20941;-70
2022/06/13 01:51:08;;;;;;;9.00;7.83;;;21.60;99.90;;;;;;5073026;28;20437;-71
2022/06/13 01:53:53;;;;;;;12.60;6.43;;;21.60;99.90;;;;;;5072998;28;20804;-70
2022/06/13 01:56:25;;;;;;;8.03;7.20;;;21.50;99.90;;;;;;5072925;28;20542;-70
2022/06/13 01:59:12;;;;;;;8.10;6.40;;;21.50;99.90;;;;;;5072998;28;20414;-69
2022/06/13 02:01:58;;;;;;;7.43;6.80;;;21.50;99.90;;;;;;5074286;28;20485;-69
2022/06/13 02:04:37;;;;;;;7.47;6.77;;;21.50;99.90;;;;;;5072663;28;20781;-68
2022/06/13 02:07:08;;;;;;;8.97;7.03;;;21.40;99.90;;;;;;5072943;28;20505;-68
2022/06/13 02:09:50;;;;;;;8.80;7.30;;;21.40;99.90;;;;;;5072130;28;20453;-68
2022/06/13 02:12:22;;;;;;;11.53;8.20;;;21.40;99.90;;;;;;5072714;28;20513;-70
2022/06/13 02:15:26;;;;;;;7.87;6.73;;;21.30;99.90;;;;;;5073980;28;20518;-69
2022/06/13 02:18:08;;;;;;;9.97;7.10;;;21.30;99.90;;;;;;5069566;28;20950;-69
2022/06/13 02:20:41;;;;;;;9.73;8.40;;;21.20;99.90;;;;;;5072768;28;20800;-68
2022/06/13 02:23:16;;;;;;;8.47;7.67;;;21.20;99.90;;;;;;5072572;28;20422;-68
2022/06/13 02:25:58;;;;;;;8.53;7.70;;;21.20;99.90;;;;;;5072884;28;20448;-69
2022/06/13 02:28:43;;;;;;;8.53;7.63;;;21.10;99.90;;;;;;5072817;28;20448;-69
2022/06/13 02:31:31;;;;;;;7.27;6.57;;;21.10;99.90;;;;;;5072371;28;20503;-69
2022/06/13 02:34:22;;;;;;;7.70;6.90;;;21.10;99.90;;;;;;5072897;28;20541;-68
2022/06/13 02:37:19;;;;;;;11.47;7.33;;;21.00;99.90;;;;;;5064488;28;20458;-68
2022/06/13 02:40:16;;;;;;;7.37;6.57;;;21.00;99.90;;;;;;5072573;28;20943;-69
2022/06/13 02:42:52;;;;;;;7.27;6.53;;;21.00;99.90;;;;;;5071637;28;20426;-71
2022/06/13 02:45:40;;;;;;;9.63;7.77;;;21.00;99.90;;;;;;5072627;28;20801;-71
2022/06/13 02:48:18;;;;;;;7.27;6.50;;;20.90;99.90;;;;;;5072525;28;20414;-71
2022/06/13 02:50:44;;;;;;;7.63;6.80;;;20.90;99.90;;;;;;5072456;28;20878;-71
2022/06/13 02:53:25;;;;;;;11.40;7.77;;;20.90;99.90;;;;;;5072223;28;20499;-68
2022/06/13 02:56:35;;;;;;;8.20;7.20;;;20.80;99.90;;;;;;5072590;28;20211;-68
2022/06/13 02:59:19;;;;;;;8.80;7.90;;;20.70;99.90;;;;;;5068159;28;20433;-69
2022/06/13 03:01:47;;;;;;;7.60;6.80;;;20.70;99.90;;;;;;5072374;28;20428;-68
2022/06/13 03:04:37;;;;;;;8.27;7.43;;;20.70;99.90;;;;;;5072090;28;20918;-69
2022/06/13 03:07:32;;;;;;;9.83;8.17;;;20.60;99.90;;;;;;5072322;28;20421;-68
2022/06/13 03:10:16;;;;;;;10.10;7.80;;;20.60;99.90;;;;;;5072052;28;20458;-68
2022/06/13 03:13:05;;;;;;;10.00;8.07;;;20.60;99.90;;;;;;5072260;28;20502;-69
2022/06/13 03:15:51;;;;;;;8.10;7.30;;;20.60;99.90;;;;;;5072085;28;20453;-69
2022/06/13 03:18:26;;;;;;;11.83;7.40;;;20.60;99.90;;;;;;5072453;28;20432;-68
2022/06/13 03:21:24;;;;;;;8.23;7.17;;;20.60;99.90;;;;;;5074685;28;20427;-68
2022/06/13 03:24:10;;;;;;;9.20;8.30;;;20.60;99.90;;;;;;5076029;28;20438;-69
2022/06/13 03:26:45;;;;;;;8.90;7.33;;;20.60;99.90;;;;;;5076478;28;20421;-69
2022/06/13 03:29:45;;;;;;;8.20;7.37;;;20.60;99.90;;;;;;5075809;28;20433;-69
2022/06/13 03:32:17;;;;;;;7.63;6.60;;;20.60;99.90;;;;;;5075785;28;20954;-69
2022/06/13 03:34:52;;;;;;;8.77;7.97;;;20.60;99.90;;;;;;5075695;28;20941;-69
2022/06/13 03:37:33;;;;;;;7.80;7.00;;;20.60;99.90;;;;;;5075765;28;20419;-69
2022/06/13 03:40:10;;;;;;;8.37;7.53;;;20.60;99.90;;;;;;5075548;28;20479;-69
2022/06/13 03:42:57;;;;;;;8.50;7.17;;;20.60;99.90;;;;;;5075760;28;20433;-68
2022/06/13 03:45:41;;;;;;;9.27;6.87;;;20.60;99.90;;;;;;5075828;28;20443;-68
2022/06/13 03:48:23;;;;;;;8.03;6.57;;;20.50;99.90;;;;;;5075631;28;20515;-69
2022/06/13 03:51:00;;;;;;;8.53;7.40;;;20.60;99.90;;;;;;5075864;28;20478;-69
2022/06/13 03:53:50;;;;;;;7.70;6.53;;;20.60;99.90;;;;;;5075353;28;21048;-69
2022/06/13 03:56:32;;;;;;;8.17;6.80;;;20.60;99.90;;;;;;5075291;28;20805;-69
2022/06/13 03:59:19;;;;;;;7.33;6.50;;;20.60;99.90;;;;;;5075394;28;20448;-69
2022/06/13 04:01:59;;;;;;;7.80;7.00;;;20.60;99.90;;;;;;5075266;28;20805;-69
2022/06/13 04:04:33;;;;;;;7.63;6.70;;;20.60;99.90;;;;;;5076514;28;20479;-69
2022/06/13 04:07:01;;;;;;;6.77;6.07;;;20.60;99.90;;;;;;5075335;28;20508;-68
2022/06/13 04:09:40;;;;;;;8.07;7.23;;;20.60;99.90;;;;;;5075382;28;20440;-69
2022/06/13 04:12:11;;;;;;;7.37;6.37;;;20.60;99.90;;;;;;5075557;28;20473;-69
2022/06/13 04:14:58;;;;;;;8.50;6.93;;;20.60;99.90;;;;;;5075071;28;20807;-68
2022/06/13 04:18:00;;;;;;;6.67;6.07;;;20.70;99.90;;;;;;5075384;28;20925;-68
2022/06/13 04:20:44;;;;;;;8.03;6.37;;;20.70;99.90;;;;;;5074769;28;20480;-69
2022/06/13 04:23:24;;;;;;;7.63;6.70;;;20.70;99.90;;;;;;5074826;28;20429;-69
2022/06/13 04:26:12;;;;;;;7.33;6.50;;;20.80;99.90;;;;;;5074716;28;20451;-69
2022/06/13 04:28:54;;;;;;;8.93;6.67;;;20.90;99.90;;;;;;5074966;28;20524;-69
2022/06/13 04:31:23;;;;;;;6.60;6.07;;;20.90;99.90;;;;;;5052589;28;20477;-69
2022/06/13 04:33:58;;;;;;;7.90;7.10;;;20.90;99.90;;;;;;5044968;28;20478;-68
2022/06/13 04:36:26;;;;;;;7.23;6.53;;;21.00;99.90;;;;;;5038673;28;20451;-68
2022/06/13 04:39:01;;;;;;;7.00;6.10;;;21.00;99.90;;;;;;5046977;28;20438;-69
2022/06/13 04:41:35;;;;;;;6.83;5.50;;;21.10;99.90;;;;;;5051640;28;20969;-69
2022/06/13 04:44:04;;;;;;;6.00;5.40;;;21.10;99.90;;;;;;5073536;28;20853;-70
2022/06/13 04:46:33;;;;;;;6.50;5.20;;;21.20;99.90;;;;;;5074025;28;20414;-69
2022/06/13 04:49:07;;;;;;;5.97;4.43;;;21.30;99.90;;;;;;5073647;28;20448;-69
2022/06/13 04:51:39;;;;;;;7.23;6.03;;;21.30;99.90;;;;;;5073289;28;20417;-68
2022/06/13 04:54:50;;;;;;;5.70;5.17;;;21.40;99.90;;;;;;5064125;28;20451;-71
2022/06/13 04:57:22;;;;;;;4.83;4.30;;;21.40;99.90;;;;;;4995272;28;20524;-69
2022/06/13 04:59:49;;;;;;;5.57;4.67;;;21.50;99.90;;;;;;5044341;28;20447;-68
2022/06/13 05:02:22;;;;;;;5.73;5.00;;;21.60;99.90;;;;;;5044575;28;20959;-69
2022/06/13 05:04:50;;;;;;;5.40;4.90;;;21.60;99.90;;;;;;5039282;28;20495;-69
2022/06/13 05:07:21;;;;;;;5.50;5.00;;;21.70;99.90;;;;;;5045067;28;20948;-70
2022/06/13 05:09:56;;;;;;;7.90;5.30;;;21.70;99.90;;;;;;5041650;28;20450;-68
2022/06/13 05:12:25;;;;;;;5.90;5.30;;;21.80;99.90;;;;;;5044329;28;20471;-69
2022/06/13 05:15:01;;;;;;;5.07;4.57;;;21.80;99.90;;;;;;5041942;28;20455;-68
2022/06/13 05:17:37;;;;;;;5.80;5.03;;;21.90;99.90;;;;;;5044704;28;20468;-70
2022/06/13 05:20:32;;;;;;;5.93;5.37;;;22.00;99.90;;;;;;5044847;28;20434;-70
2022/06/13 05:23:24;;;;;;;5.37;4.87;;;22.00;99.90;;;;;;5032702;28;20454;-70
2022/06/13 05:25:57;;;;;;;5.07;4.67;;;22.10;99.90;;;;;;5041102;28;20600;-70
2022/06/13 05:28:26;;;;;;;6.10;4.80;;;22.10;99.90;;;;;;5043001;28;20435;-70
2022/06/13 05:30:55;;;;;;;5.17;4.47;;;22.20;99.90;;;;;;5052550;28;20906;-70
2022/06/13 05:33:26;;;;;;;4.87;4.37;;;22.20;99.90;;;;;;5052266;28;20472;-70
2022/06/13 05:35:58;;;;;;;5.30;4.80;;;22.30;99.90;;;;;;5052304;28;20987;-70
2022/06/13 05:38:31;;;;;;;4.40;4.00;;;22.40;99.90;;;;;;5047210;28;20439;-70
2022/06/13 05:40:58;;;;;;;4.53;4.10;;;22.40;99.90;;;;;;5043599;28;20463;-69
2022/06/13 05:43:25;;;;;;;6.30;4.10;;;22.50;99.90;;;;;;5052678;28;20417;-70
2022/06/13 05:45:55;;;;;;;5.80;5.30;;;22.50;99.90;;;;;;5052132;28;21041;-69
2022/06/13 05:48:23;;;;;;;5.53;5.03;;;22.60;99.90;;;;;;5047559;28;20444;-70
2022/06/13 05:50:52;;;;;;;4.70;4.27;;;22.70;99.90;;;;;;5033734;28;20956;-70
2022/06/13 05:53:23;;;;;;;5.20;4.30;;;22.70;99.90;;;;;;5047138;28;20490;-69
2022/06/13 05:55:50;;;;;;;4.90;4.50;;;22.80;99.90;;;;;;5047228;28;20478;-70
2022/06/13 05:58:23;;;;;;;5.80;4.83;;;22.80;99.90;;;;;;5069899;28;20422;-71
2022/06/13 06:00:57;;;;;;;5.27;4.77;;;22.90;99.90;;;;;;5033213;28;20978;-70
2022/06/13 06:03:23;;;;;;;6.00;4.00;;;23.00;99.90;;;;;;5040134;28;20821;-70
2022/06/13 06:05:49;;;;;;;5.07;4.67;;;23.00;99.90;;;;;;5058193;28;20494;-69
2022/06/13 06:08:28;;;;;;;4.90;4.20;;;23.10;99.90;;;;;;5037215;28;20456;-71
2022/06/13 06:11:00;;;;;;;5.10;4.20;;;23.10;99.90;;;;;;5044274;28;20517;-71
2022/06/13 06:13:29;;;;;;;5.03;4.47;;;23.20;99.90;;;;;;5030828;28;20528;-69
2022/06/13 06:15:58;;;;;;;4.57;4.17;;;23.30;99.90;;;;;;5032821;28;20974;-71
2022/06/13 06:18:34;;;;;;;3.57;3.27;;;23.30;99.90;;;;;;5025731;28;20563;-71
2022/06/13 06:20:59;;;;;;;5.77;3.50;;;23.40;99.90;;;;;;5038934;28;20843;-69
2022/06/13 06:23:36;;;;;;;4.10;3.70;;;23.50;99.90;;;;;;5049870;28;20446;-68
2022/06/13 06:26:04;;;;;;;4.13;3.70;;;23.50;99.90;;;;;;5034992;28;20179;-70
2022/06/13 06:28:36;;;;;;;4.63;3.50;;;23.60;99.90;;;;;;5027315;28;20427;-68
2022/06/13 06:31:05;;;;;;;3.70;3.40;;;23.70;99.90;;;;;;5029263;28;20498;-69
2022/06/13 06:33:32;;;;;;;4.10;3.70;;;23.80;99.90;;;;;;5034093;28;20473;-69
2022/06/13 06:36:01;;;;;;;4.23;3.80;;;23.80;99.90;;;;;;5046189;28;20473;-68
2022/06/13 06:38:29;;;;;;;3.73;3.43;;;23.90;99.90;;;;;;5029745;28;20511;-69
2022/06/13 06:40:55;;;;;;;4.90;3.53;;;24.00;99.90;;;;;;5033976;28;20453;-69
2022/06/13 06:43:25;;;;;;;4.27;3.87;;;24.00;99.90;;;;;;5053743;28;20442;-69
2022/06/13 06:45:51;;;;;;;3.80;3.50;;;24.10;99.90;;;;;;5041379;28;20587;-68
2022/06/13 06:48:23;;;;;;;4.40;4.00;;;24.20;99.90;;;;;;5040054;28;20518;-69
2022/06/13 06:50:55;;;;;;;4.13;3.60;;;24.20;99.90;;;;;;5028628;28;20238;-70
2022/06/13 06:53:24;;;;;;;3.43;3.13;;;24.30;99.90;;;;;;5033342;28;20477;-68
2022/06/13 07:01:23;;;;;;;3.70;3.40;;;24.50;99.90;;;;;;5040247;28;20421;-69
2022/06/13 07:03:51;;;;;;;14.30;4.47;;;24.60;99.90;;;;;;5035764;28;20949;-68
2022/06/13 07:06:20;;;;;;;4.47;4.03;;;24.60;99.90;;;;;;5035057;28;20487;-71
2022/06/13 07:08:45;;;;;;;4.83;4.43;;;24.60;99.90;;;;;;5031065;28;20511;-69
2022/06/13 07:14:05;;;;;;;4.43;3.97;;;24.70;99.90;;;;;;5037962;28;20622;-70
2022/06/13 07:17:02;;;;;;;4.47;4.07;;;24.80;99.90;;;;;;5038442;28;20530;-69
2022/06/13 07:19:32;;;;;;;3.63;3.30;;;24.90;99.90;;;;;;5038021;28;20536;-71
2022/06/13 07:22:04;;;;;;;4.50;4.10;;;24.90;99.90;;;;;;5033317;28;21163;-70
2022/06/13 07:24:37;;;;;;;4.33;3.73;;;25.00;99.90;;;;;;5051519;28;20519;-70
2022/06/13 07:27:04;;;;;;;3.63;3.33;;;25.00;99.90;;;;;;5040151;28;20441;-69
2022/06/13 07:29:32;;;;;;;3.93;3.63;;;25.00;99.90;;;;;;5045522;28;20509;-71
2022/06/13 07:32:06;;;;;;;4.27;3.90;;;25.10;99.90;;;;;;5048275;28;20489;-70
2022/06/13 07:34:39;;;;;;;4.67;3.87;;;25.20;99.90;;;;;;5033730;28;20502;-70
2022/06/13 07:37:08;;;;;;;4.73;4.30;;;25.30;99.90;;;;;;5032739;28;21045;-69
2022/06/13 07:39:34;;;;;;;3.80;3.50;;;25.30;99.90;;;;;;5034335;28;20601;-69
2022/06/13 07:42:00;;;;;;;4.27;3.80;;;25.30;99.90;;;;;;5035332;28;20925;-69
2022/06/13 07:44:30;;;;;;;3.73;3.40;;;25.40;99.90;;;;;;5033895;28;20573;-69
2022/06/13 07:47:03;;;;;;;3.30;3.00;;;25.40;99.90;;;;;;5040239;28;20423;-71
2022/06/13 07:49:29;;;;;;;3.43;3.13;;;25.40;99.90;;;;;;5026696;28;20522;-68
2022/06/13 07:51:54;;;;;;;3.70;3.40;;;25.40;99.90;;;;;;5028537;28;21081;-68
2022/06/13 07:54:21;;;;;;;4.27;3.90;;;25.50;99.90;;;;;;5035794;28;20503;-68
2022/06/13 07:56:47;;;;;;;4.37;3.40;;;25.50;99.90;;;;;;5031688;28;20182;-68
2022/06/13 07:59:18;;;;;;;3.93;3.53;;;25.50;99.90;;;;;;5029624;28;20473;-69
2022/06/13 08:01:45;;;;;;;5.80;3.10;;;25.60;99.90;;;;;;5043032;28;20535;-68
2022/06/13 08:04:12;;;;;;;4.10;3.80;;;25.60;99.90;;;;;;5037937;28;20497;-69
2022/06/13 08:06:43;;;;;;;3.60;3.30;;;25.60;99.90;;;;;;5043789;28;20453;-70
2022/06/13 08:09:10;;;;;;;3.60;3.20;;;25.70;99.90;;;;;;5044418;28;20509;-68
2022/06/13 08:11:58;;;;;;;3.87;3.57;;;25.80;99.90;;;;;;5054052;28;20453;-70
2022/06/13 08:14:27;;;;;;;3.90;3.60;;;25.80;99.90;;;;;;5046820;28;20481;-68
2022/06/13 08:16:56;;;;;;;3.67;3.37;;;25.80;99.90;;;;;;5034396;28;20443;-68
2022/06/13 08:19:22;;;;;;;4.20;3.80;;;25.80;99.90;;;;;;5050221;28;20793;-68
2022/06/13 08:21:51;;;;;;;3.50;3.00;;;25.90;99.90;;;;;;5046764;28;20526;-68
2022/06/13 08:24:18;;;;;;;4.57;3.47;;;26.00;99.90;;;;;;5045551;28;20194;-69
2022/06/13 08:26:46;;;;;;;4.17;3.87;;;26.00;99.90;;;;;;5040929;28;20925;-70
2022/06/13 08:29:16;;;;;;;4.10;3.40;;;26.00;99.90;;;;;;5040236;28;20436;-70
2022/06/13 08:31:44;;;;;;;4.37;3.20;;;26.10;99.90;;;;;;5033850;28;20475;-70
2022/06/13 08:34:10;;;;;;;3.43;3.07;;;26.10;99.90;;;;;;5041052;28;21201;-68
2022/06/13 08:36:36;;;;;;;3.70;3.40;;;26.20;99.90;;;;;;5036403;28;20450;-69
2022/06/13 08:39:03;;;;;;;4.00;3.37;;;26.20;99.90;;;;;;5039275;28;20194;-68
2022/06/13 08:41:48;;;;;;;3.77;3.47;;;26.20;99.90;;;;;;5043406;28;20414;-68
2022/06/13 08:44:27;;;;;;;3.87;3.57;;;26.30;99.90;;;;;;5047424;28;20883;-68
2022/06/13 08:47:11;;;;;;;3.20;2.90;;;26.30;99.90;;;;;;5038272;28;20428;-69
2022/06/13 08:49:52;;;;;;;3.60;3.30;;;26.40;99.90;;;;;;5031247;28;20447;-68
2022/06/13 08:52:49;;;;;;;2.90;2.70;;;26.40;99.90;;;;;;5032977;28;20538;-69
2022/06/13 08:55:38;;;;;;;3.57;3.27;;;26.60;99.90;;;;;;5044653;28;20489;-69
2022/06/13 08:58:29;;;;;;;3.20;3.00;;;26.70;99.90;;;;;;5044010;28;20956;-68
2022/06/13 09:01:09;;;;;;;3.33;3.03;;;26.70;99.90;;;;;;5027806;28;20801;-70
2022/06/13 09:04:11;;;;;;;4.30;3.40;;;26.80;99.90;;;;;;5043876;28;20790;-70
2022/06/13 09:07:11;;;;;;;3.23;2.97;;;26.90;99.90;;;;;;5031671;28;20443;-69
2022/06/13 09:09:36;;;;;;;4.17;3.87;;;26.90;99.90;;;;;;5030562;28;20452;-68
2022/06/13 09:12:19;;;;;;;3.50;3.20;;;27.00;99.90;;;;;;5044100;28;20454;-70
2022/06/13 09:14:52;;;;;;;4.07;3.77;;;27.10;99.90;;;;;;5038228;28;20212;-69
2022/06/13 09:17:48;;;;;;;3.70;3.40;;;27.10;99.90;;;;;;5038837;28;20440;-71
2022/06/13 09:20:53;;;;;;;3.97;3.67;;;27.20;99.90;;;;;;5031457;28;20478;-71
2022/06/13 09:23:56;;;;;;;3.63;3.33;;;27.20;99.90;;;;;;5031945;28;20462;-69
2022/06/13 09:26:27;;;;;;;6.93;3.50;;;27.20;99.90;;;;;;5026345;28;20447;-69
2022/06/13 09:29:11;;;;;;;3.87;3.50;;;27.30;99.90;;;;;;5044850;28;20875;-70
2022/06/13 09:31:40;;;;;;;5.23;3.53;;;27.30;99.90;;;;;;5035188;28;21055;-70
2022/06/13 09:34:18;;;;;;;3.10;2.80;;;27.40;99.90;;;;;;5036074;28;20475;-70
2022/06/13 09:37:13;;;;;;;5.87;4.27;;;27.50;99.90;;;;;;5030863;28;20503;-71
2022/06/13 09:40:01;;;;;;;4.03;3.63;;;27.60;99.90;;;;;;5049782;28;20516;-70
2022/06/13 09:43:02;;;;;;;3.80;3.50;;;27.70;99.90;;;;;;5040481;28;20451;-71
2022/06/13 09:45:36;;;;;;;4.17;3.77;;;27.70;99.90;;;;;;5046923;28;21065;-69
2022/06/13 09:48:42;;;;;;;12.33;3.73;;;27.70;99.90;;;;;;5039919;28;20408;-70
2022/06/13 09:51:32;;;;;;;3.63;3.33;;;27.60;99.90;;;;;;5042535;28;21053;-69
2022/06/13 09:54:07;;;;;;;3.70;3.40;;;27.50;99.90;;;;;;5040665;28;20910;-70
2022/06/13 09:56:47;;;;;;;4.77;4.33;;;27.40;99.90;;;;;;5039421;28;20474;-70
2022/06/13 09:59:28;;;;;;;4.97;4.43;;;27.30;99.90;;;;;;5048554;28;20967;-69
2022/06/13 10:02:05;;;;;;;4.10;3.70;;;27.40;99.90;;;;;;5033951;28;20424;-70
2022/06/13 10:04:39;;;;;;;3.70;3.40;;;27.40;99.90;;;;;;5042124;28;20478;-69
2022/06/13 10:07:12;;;;;;;4.27;3.87;;;27.30;99.90;;;;;;5046411;28;20785;-69
2022/06/13 10:09:38;;;;;;;4.50;4.10;;;27.30;99.90;;;;;;5044904;28;20455;-69
2022/06/13 10:12:16;;;;;;;4.20;3.90;;;27.20;99.90;;;;;;5040014;28;20540;-70
2022/06/13 10:14:54;;;;;;;4.37;3.97;;;27.10;99.90;;;;;;5035703;28;20507;-69
2022/06/13 10:17:36;;;;;;;4.30;3.90;;;27.20;99.90;;;;;;5040386;28;20439;-71
2022/06/13 10:20:09;;;;;;;4.73;3.97;;;27.20;99.90;;;;;;5034256;28;20454;-70
2022/06/13 10:23:18;;;;;;;4.60;4.20;;;27.20;99.90;;;;;;5037389;28;20442;-71
2022/06/13 10:26:21;;;;;;;11.00;4.20;;;27.20;99.90;;;;;;5013122;28;20456;-71
2022/06/13 10:29:08;;;;;;;4.50;4.10;;;27.10;99.90;;;;;;4961870;28;20810;-69
2022/06/13 10:32:07;;;;;;;4.73;4.27;;;27.00;99.90;;;;;;5027419;28;20507;-70
2022/06/13 10:35:10;;;;;;;4.23;3.80;;;27.10;99.90;;;;;;5039102;28;20473;-71
2022/06/13 10:38:07;;;;;;;4.57;4.10;;;27.20;99.90;;;;;;5039504;28;20435;-69
2022/06/13 10:41:06;;;;;;;4.30;3.90;;;27.30;99.90;;;;;;5034777;28;20502;-70
2022/06/13 10:43:48;;;;;;;4.47;4.07;;;27.40;99.90;;;;;;5038877;28;20952;-70
2022/06/13 10:46:23;;;;;;;4.10;3.70;;;27.50;99.90;;;;;;5029938;28;20998;-72
2022/06/13 10:49:14;;;;;;;4.30;3.90;;;27.60;99.90;;;;;;5034130;28;20477;-69
2022/06/13 10:51:57;;;;;;;4.90;4.50;;;27.70;99.90;;;;;;5037748;28;20464;-71
2022/06/13 10:54:30;;;;;;;4.10;3.80;;;27.80;99.90;;;;;;5032715;28;20478;-69
2022/06/13 10:57:09;;;;;;;4.23;3.90;;;27.80;99.90;;;;;;5032175;28;20436;-70
2022/06/13 10:59:38;;;;;;;4.97;4.53;;;27.90;99.90;;;;;;5031981;28;20462;-69
2022/06/13 11:02:17;;;;;;;5.63;4.37;;;27.90;99.90;;;;;;5029344;28;20436;-71
2022/06/13 11:05:10;;;;;;;4.77;4.30;;;27.90;99.90;;;;;;5025705;28;20827;-71
2022/06/13 11:07:51;;;;;;;4.60;4.20;;;27.90;99.90;;;;;;5030152;28;20460;-72
2022/06/13 11:10:42;;;;;;;4.27;3.90;;;27.90;99.90;;;;;;5036731;28;20452;-69
2022/06/13 11:13:28;;;;;;;6.37;4.77;;;28.00;99.90;;;;;;5034759;28;20585;-69
2022/06/13 11:24:58;;;;;;;4.83;4.33;;;28.20;99.90;;;;;;5028958;28;20462;-70
2022/06/13 11:27:44;;;;;;;7.47;4.23;;;28.30;99.90;;;;;;5036641;28;20521;-71
2022/06/13 11:30:29;;;;;;;5.00;4.60;;;28.30;99.90;;;;;;5031285;28;20480;-69
2022/06/13 11:33:01;;;;;;;5.13;4.47;;;28.40;99.90;;;;;;5031828;28;20485;-69
2022/06/13 11:35:41;;;;;;;5.30;4.90;;;28.30;99.90;;;;;;5035405;28;20691;-71
2022/06/13 11:38:50;;;;;;;4.30;3.90;;;28.30;99.90;;;;;;5028811;28;20436;-71
2022/06/13 11:41:31;;;;;;;5.30;4.80;;;28.30;99.90;;;;;;5050567;28;20826;-72
2022/06/13 11:44:06;;;;;;;4.97;4.57;;;28.40;99.90;;;;;;5048637;28;20463;-70
2022/06/13 11:46:59;;;;;;;4.27;3.97;;;28.30;99.90;;;;;;5042282;28;20440;-70
2022/06/13 11:49:39;;;;;;;5.43;4.50;;;28.30;99.90;;;;;;5037726;28;20820;-71
2022/06/13 11:53:35;;;;;;;4.47;4.07;;;28.40;99.10;;;;;;5046844;28;20428;-69
2022/06/13 11:55:43;;;;;;;5.77;4.70;;;28.40;99.10;;;;;;5040920;28;20483;-70
2022/06/13 11:58:24;;;;;;;5.40;4.93;;;28.50;98.60;;;;;;5034312;28;20441;-70
2022/06/13 12:01:02;;;;;;;4.00;3.70;;;28.50;98.80;;;;;;5031702;28;20725;-69
2022/06/13 12:06:11;;;;;;;4.00;3.70;;;28.50;98.60;;;;;;5045189;23;20483;-69
2022/06/13 12:08:38;;;;;;;5.10;4.70;;;28.50;98.50;;;;;;5008421;28;20906;-69
2022/06/13 12:11:13;;;;;;;4.47;4.17;;;28.50;97.90;;;;;;5053184;28;20462;-70
2022/06/13 12:13:42;;;;;;;4.53;4.20;;;28.50;98.30;;;;;;5048335;28;20478;-69
2022/06/13 12:16:14;;;;;;;4.27;3.90;;;28.50;98.80;;;;;;5043743;28;20472;-69
2022/06/13 12:19:15;;;;;;;4.97;4.57;;;28.50;98.10;;;;;;5030340;28;20527;-69
2022/06/13 12:21:49;;;;;;;4.77;3.97;;;28.60;97.00;;;;;;5049673;28;20936;-70
2022/06/13 12:24:22;;;;;;;5.10;4.70;;;28.60;98.30;;;;;;5046727;28;20509;-70
2022/06/13 12:27:01;;;;;;;4.97;4.57;;;28.60;97.80;;;;;;5044442;28;20448;-70
2022/06/13 12:29:42;;;;;;;4.00;3.70;;;28.70;98.10;;;;;;5047066;28;20474;-70
2022/06/13 12:32:40;;;;;;;5.00;4.60;;;28.80;98.20;;;;;;5027082;28;20809;-71
2022/06/13 12:35:17;;;;;;;4.90;4.43;;;28.80;98.20;;;;;;5036822;28;20499;-70
2022/06/13 12:37:56;;;;;;;5.13;4.43;;;28.90;98.10;;;;;;5017633;28;20479;-71
2022/06/13 12:41:04;;;;;;;6.20;4.30;;;28.90;98.40;;;;;;5026707;28;20499;-71
2022/06/13 12:43:54;;;;;;;4.83;4.43;;;28.90;98.30;;;;;;5047869;28;20511;-69
2022/06/13 12:46:41;;;;;;;4.87;3.73;;;28.90;98.50;;;;;;5029779;28;20434;-70
2022/06/13 12:49:40;;;;;;;4.73;4.37;;;28.90;98.40;;;;;;5030905;28;20542;-69
2022/06/13 12:52:51;;;;;;;4.83;4.43;;;28.90;98.20;;;;;;5032245;28;20426;-69
2022/06/13 12:55:44;;;;;;;5.87;5.10;;;28.90;97.50;;;;;;5011285;28;20470;-70
2022/06/13 12:58:11;;;;;;;4.30;3.90;;;28.90;97.60;;;;;;5029991;28;20475;-70
2022/06/13 13:00:53;;;;;;;4.53;4.20;;;28.90;97.40;;;;;;5032128;28;20538;-70
2022/06/13 13:03:41;;;;;;;4.27;3.87;;;28.90;97.30;;;;;;5045097;28;20502;-70
2022/06/13 13:06:15;;;;;;;5.10;4.40;;;28.90;96.60;;;;;;5019318;28;20450;-69
2022/06/13 13:09:00;;;;;;;4.37;4.07;;;29.00;96.70;;;;;;5025458;28;20497;-69
2022/06/13 13:11:42;;;;;;;4.40;4.00;;;29.00;96.80;;;;;;5023432;28;20800;-70
2022/06/13 13:14:47;;;;;;;5.27;4.83;;;29.00;97.00;;;;;;5032545;28;20493;-70
2022/06/13 13:17:31;;;;;;;4.40;3.60;;;29.00;96.70;;;;;;4990238;28;20453;-70
2022/06/13 13:20:09;;;;;;;4.80;4.40;;;29.10;96.60;;;;;;5042860;28;21117;-70
2022/06/13 13:23:28;;;;;;;4.10;3.80;;;29.10;95.20;;;;;;5029387;28;20446;-71
2022/06/13 13:25:57;;;;;;;3.87;3.60;;;29.20;95.00;;;;;;5012764;28;20478;-69
2022/06/13 13:29:06;;;;;;;3.63;3.33;;;29.20;94.60;;;;;;5031979;28;20448;-70
2022/06/13 13:31:47;;;;;;;4.20;3.70;;;29.20;94.20;;;;;;5048174;28;20436;-71
2022/06/13 13:34:34;;;;;;;3.13;2.83;;;29.20;94.00;;;;;;5029921;28;20544;-69
2022/06/13 13:37:16;;;;;;;3.97;3.67;;;29.20;93.60;;;;;;5023977;28;20437;-71
2022/06/13 13:39:57;;;;;;;3.90;3.17;;;29.20;94.10;;;;;;5027568;28;20473;-70
2022/06/13 13:42:56;;;;;;;3.50;3.30;;;29.20;93.60;;;;;;5028657;28;20927;-70
2022/06/13 13:45:30;;;;;;;3.07;2.73;;;29.30;93.50;;;;;;5036405;28;20454;-70
2022/06/13 13:48:14;;;;;;;3.37;2.90;;;29.30;92.70;;;;;;5046119;28;20496;-69
2022/06/13 13:50:50;;;;;;;3.20;3.00;;;29.30;92.50;;;;;;5044964;28;20456;-69
2022/06/13 13:53:20;;;;;;;3.50;2.80;;;29.30;93.60;;;;;;5029034;28;20455;-70
2022/06/13 13:56:27;;;;;;;3.30;2.70;;;29.30;92.90;;;;;;5030169;28;20441;-70
2022/06/13 13:58:59;;;;;;;3.23;3.03;;;29.30;92.80;;;;;;5028300;28;20469;-69
2022/06/13 14:01:40;;;;;;;3.13;2.83;;;29.30;92.40;;;;;;5030557;28;20418;-69
2022/06/13 14:04:39;;;;;;;3.03;2.83;;;29.30;94.30;;;;;;5034186;28;20576;-70
2022/06/13 14:07:33;;;;;;;3.37;3.07;;;29.30;91.90;;;;;;5042275;28;20448;-70